sensor_id;sensor_type;location;lat;lon;timestamp;P1;durP1;ratioP1;P2;durP2;ratioP2
3591;SDS011;1810;48.720;9.094;2023-02-28T00:00:24;79.85;;;76.07;;
3591;SDS011;1810;48.720;9.094;2023-02-28T00:06:06;61.47;;;58.37;;
3591;SDS011;1810;48.720;9.094;2023-02-28T00:09:08;124.35;;;118.90;;
3591;SDS011;1810;48.720;9.094;2023-02-28T00:12:08;147.32;;;141.10;;
3591;SDS011;1810;48.720;9.094;2023-02-28T00:14:51;76.17;;;72.60;;
3591;SDS011;1810;48.720;9.094;2023-02-28T00:17:43;93.57;;;89.17;;
3591;SDS011;1810;48.720;9.094;2023-02-28T00:20:29;74.38;;;70.68;;
3591;SDS011;1810;48.720;9.094;2023-02-28T00:23:36;81.00;;;77.30;;
3591;SDS011;1810;48.720;9.094;2023-02-28T00:26:19;70.15;;;66.75;;
3591;SDS011;1810;48.720;9.094;2023-02-28T00:29:01;95.68;;;91.25;;
3591;SDS011;1810;48.720;9.094;2023-02-28T00:31:36;58.80;;;55.95;;
3591;SDS011;1810;48.720;9.094;2023-02-28T00:34:34;61.23;;;58.23;;
3591;SDS011;1810;48.720;9.094;2023-02-28T00:37:05;96.53;;;91.97;;
3591;SDS011;1810;48.720;9.094;2023-02-28T00:39:39;71.00;;;67.50;;
3591;SDS011;1810;48.720;9.094;2023-02-28T00:42:16;143.13;;;137.00;;
3591;SDS011;1810;48.720;9.094;2023-02-28T00:44:47;82.87;;;79.07;;
3591;SDS011;1810;48.720;9.094;2023-02-28T00:47:19;138.33;;;132.50;;
3591;SDS011;1810;48.720;9.094;2023-02-28T00:49:51;97.37;;;92.93;;
3591;SDS011;1810;48.720;9.094;2023-02-28T00:52:25;66.73;;;63.53;;
3591;SDS011;1810;48.720;9.094;2023-02-28T00:54:54;59.23;;;56.03;;
3591;SDS011;1810;48.720;9.094;2023-02-28T00:57:32;66.30;;;63.13;;
3591;SDS011;1810;48.720;9.094;2023-02-28T01:00:16;156.32;;;149.68;;
3591;SDS011;1810;48.720;9.094;2023-02-28T01:02:46;65.80;;;62.70;;
3591;SDS011;1810;48.720;9.094;2023-02-28T01:05:15;68.50;;;65.23;;
3591;SDS011;1810;48.720;9.094;2023-02-28T01:08:06;66.57;;;63.07;;
3591;SDS011;1810;48.720;9.094;2023-02-28T01:10:38;74.72;;;71.18;;
3591;SDS011;1810;48.720;9.094;2023-02-28T01:13:07;55.33;;;52.50;;
3591;SDS011;1810;48.720;9.094;2023-02-28T01:16:12;134.60;;;128.07;;
3591;SDS011;1810;48.720;9.094;2023-02-28T01:18:41;97.95;;;93.55;;
3591;SDS011;1810;48.720;9.094;2023-02-28T01:21:12;82.50;;;78.77;;
3591;SDS011;1810;48.720;9.094;2023-02-28T01:23:45;71.30;;;68.00;;
3591;SDS011;1810;48.720;9.094;2023-02-28T01:26:26;96.13;;;91.93;;
3591;SDS011;1810;48.720;9.094;2023-02-28T01:28:58;76.90;;;73.40;;
3591;SDS011;1810;48.720;9.094;2023-02-28T01:31:34;82.10;;;78.40;;
3591;SDS011;1810;48.720;9.094;2023-02-28T01:34:05;88.80;;;84.73;;
3591;SDS011;1810;48.720;9.094;2023-02-28T01:37:09;95.97;;;91.63;;
3591;SDS011;1810;48.720;9.094;2023-02-28T01:40:33;85.88;;;81.85;;
3591;SDS011;1810;48.720;9.094;2023-02-28T01:43:16;149.43;;;142.20;;
3591;SDS011;1810;48.720;9.094;2023-02-28T01:46:29;89.70;;;85.57;;
3591;SDS011;1810;48.720;9.094;2023-02-28T01:53:04;78.45;;;74.80;;
3591;SDS011;1810;48.720;9.094;2023-02-28T01:56:19;79.10;;;75.37;;
3591;SDS011;1810;48.720;9.094;2023-02-28T01:59:17;87.53;;;83.72;;
3591;SDS011;1810;48.720;9.094;2023-02-28T02:02:25;101.97;;;97.50;;
3591;SDS011;1810;48.720;9.094;2023-02-28T02:05:24;110.77;;;105.47;;
3591;SDS011;1810;48.720;9.094;2023-02-28T02:15:16;82.57;;;78.63;;
3591;SDS011;1810;48.720;9.094;2023-02-28T02:18:40;157.50;;;150.33;;
3591;SDS011;1810;48.720;9.094;2023-02-28T02:25:13;158.63;;;150.97;;
3591;SDS011;1810;48.720;9.094;2023-02-28T02:28:29;118.83;;;113.50;;
3591;SDS011;1810;48.720;9.094;2023-02-28T02:31:27;110.07;;;105.20;;
3591;SDS011;1810;48.720;9.094;2023-02-28T02:41:28;104.57;;;99.90;;
3591;SDS011;1810;48.720;9.094;2023-02-28T02:44:42;80.37;;;76.70;;
3591;SDS011;1810;48.720;9.094;2023-02-28T02:47:39;101.87;;;97.17;;
3591;SDS011;1810;48.720;9.094;2023-02-28T02:50:14;94.17;;;90.10;;
3591;SDS011;1810;48.720;9.094;2023-02-28T02:56:45;99.70;;;94.40;;
3591;SDS011;1810;48.720;9.094;2023-02-28T02:59:31;129.80;;;124.32;;
3591;SDS011;1810;48.720;9.094;2023-02-28T03:02:55;115.73;;;110.60;;
3591;SDS011;1810;48.720;9.094;2023-02-28T03:05:49;139.32;;;133.18;;
3591;SDS011;1810;48.720;9.094;2023-02-28T03:09:02;113.50;;;108.40;;
3591;SDS011;1810;48.720;9.094;2023-02-28T03:15:16;114.67;;;109.60;;
3591;SDS011;1810;48.720;9.094;2023-02-28T03:18:06;78.43;;;74.73;;
3591;SDS011;1810;48.720;9.094;2023-02-28T03:21:14;151.17;;;144.20;;
3591;SDS011;1810;48.720;9.094;2023-02-28T03:24:17;104.17;;;99.40;;
3591;SDS011;1810;48.720;9.094;2023-02-28T03:27:43;95.80;;;91.43;;
3591;SDS011;1810;48.720;9.094;2023-02-28T03:30:37;161.93;;;154.80;;
3591;SDS011;1810;48.720;9.094;2023-02-28T03:33:52;108.67;;;103.83;;
3591;SDS011;1810;48.720;9.094;2023-02-28T03:36:48;126.80;;;121.20;;
3591;SDS011;1810;48.720;9.094;2023-02-28T03:40:02;161.63;;;154.73;;
3591;SDS011;1810;48.720;9.094;2023-02-28T03:42:56;106.50;;;101.70;;
3591;SDS011;1810;48.720;9.094;2023-02-28T03:45:46;95.37;;;91.20;;
3591;SDS011;1810;48.720;9.094;2023-02-28T03:48:37;93.80;;;89.30;;
3591;SDS011;1810;48.720;9.094;2023-02-28T03:51:42;136.85;;;130.40;;
3591;SDS011;1810;48.720;9.094;2023-02-28T03:54:12;119.77;;;114.03;;
3591;SDS011;1810;48.720;9.094;2023-02-28T03:57:00;127.90;;;122.03;;
3591;SDS011;1810;48.720;9.094;2023-02-28T03:59:48;96.82;;;92.40;;
3591;SDS011;1810;48.720;9.094;2023-02-28T04:02:55;164.97;;;156.77;;
3591;SDS011;1810;48.720;9.094;2023-02-28T04:06:03;95.57;;;91.25;;
3591;SDS011;1810;48.720;9.094;2023-02-28T04:08:49;96.03;;;91.30;;
3591;SDS011;1810;48.720;9.094;2023-02-28T04:11:34;107.50;;;102.43;;
3591;SDS011;1810;48.720;9.094;2023-02-28T04:14:34;108.13;;;103.43;;
3591;SDS011;1810;48.720;9.094;2023-02-28T04:20:54;105.37;;;100.57;;
3591;SDS011;1810;48.720;9.094;2023-02-28T04:23:40;151.60;;;144.87;;
3591;SDS011;1810;48.720;9.094;2023-02-28T04:26:20;107.47;;;102.67;;
3591;SDS011;1810;48.720;9.094;2023-02-28T04:29:18;137.00;;;130.70;;
3591;SDS011;1810;48.720;9.094;2023-02-28T04:32:34;108.40;;;103.50;;
3591;SDS011;1810;48.720;9.094;2023-02-28T04:35:36;121.95;;;116.72;;
3591;SDS011;1810;48.720;9.094;2023-02-28T04:38:28;102.33;;;97.77;;
3591;SDS011;1810;48.720;9.094;2023-02-28T04:40:57;155.38;;;148.57;;
3591;SDS011;1810;48.720;9.094;2023-02-28T04:43:37;195.93;;;187.50;;
3591;SDS011;1810;48.720;9.094;2023-02-28T04:54:26;194.10;;;185.68;;
3591;SDS011;1810;48.720;9.094;2023-02-28T04:56:56;205.25;;;196.13;;
3591;SDS011;1810;48.720;9.094;2023-02-28T04:59:26;110.60;;;105.70;;
3591;SDS011;1810;48.720;9.094;2023-02-28T05:02:09;113.50;;;108.40;;
3591;SDS011;1810;48.720;9.094;2023-02-28T05:04:43;126.27;;;120.73;;
3591;SDS011;1810;48.720;9.094;2023-02-28T05:07:42;160.00;;;153.07;;
3591;SDS011;1810;48.720;9.094;2023-02-28T05:10:15;111.33;;;106.43;;
3591;SDS011;1810;48.720;9.094;2023-02-28T05:13:01;132.05;;;126.05;;
3591;SDS011;1810;48.720;9.094;2023-02-28T05:15:46;159.03;;;151.77;;
3591;SDS011;1810;48.720;9.094;2023-02-28T05:18:52;136.80;;;130.63;;
3591;SDS011;1810;48.720;9.094;2023-02-28T05:21:54;106.18;;;101.45;;
3591;SDS011;1810;48.720;9.094;2023-02-28T05:24:27;189.27;;;181.20;;
3591;SDS011;1810;48.720;9.094;2023-02-28T05:26:56;157.80;;;150.97;;
3591;SDS011;1810;48.720;9.094;2023-02-28T05:29:25;159.82;;;152.15;;
3591;SDS011;1810;48.720;9.094;2023-02-28T05:31:59;131.00;;;125.20;;
3591;SDS011;1810;48.720;9.094;2023-02-28T05:34:52;98.60;;;94.22;;
3591;SDS011;1810;48.720;9.094;2023-02-28T05:37:23;173.57;;;165.67;;
3591;SDS011;1810;48.720;9.094;2023-02-28T05:39:57;137.23;;;130.93;;
3591;SDS011;1810;48.720;9.094;2023-02-28T05:42:27;161.43;;;154.13;;
3591;SDS011;1810;48.720;9.094;2023-02-28T05:45:01;139.83;;;133.67;;
3591;SDS011;1810;48.720;9.094;2023-02-28T05:47:33;110.23;;;105.20;;
3591;SDS011;1810;48.720;9.094;2023-02-28T05:50:04;205.47;;;196.67;;
3591;SDS011;1810;48.720;9.094;2023-02-28T05:52:53;141.43;;;135.10;;
3591;SDS011;1810;48.720;9.094;2023-02-28T07:02:48;221.13;;;211.60;;
3591;SDS011;1810;48.720;9.094;2023-02-28T07:05:16;264.52;;;251.02;;
3591;SDS011;1810;48.720;9.094;2023-02-28T07:07:45;173.48;;;165.45;;
3591;SDS011;1810;48.720;9.094;2023-02-28T07:10:13;124.97;;;119.22;;
3591;SDS011;1810;48.720;9.094;2023-02-28T07:12:45;135.50;;;129.05;;
3591;SDS011;1810;48.720;9.094;2023-02-28T07:15:14;109.82;;;104.65;;
3591;SDS011;1810;48.720;9.094;2023-02-28T07:17:42;124.28;;;118.57;;
3591;SDS011;1810;48.720;9.094;2023-02-28T07:20:13;226.57;;;215.68;;
3591;SDS011;1810;48.720;9.094;2023-02-28T07:22:42;118.25;;;112.60;;
3591;SDS011;1810;48.720;9.094;2023-02-28T07:25:10;330.42;;;311.73;;
3591;SDS011;1810;48.720;9.094;2023-02-28T07:27:39;176.27;;;168.23;;
3591;SDS011;1810;48.720;9.094;2023-02-28T07:30:08;123.03;;;117.40;;
3591;SDS011;1810;48.720;9.094;2023-02-28T07:32:38;118.50;;;113.53;;
3591;SDS011;1810;48.720;9.094;2023-02-28T07:35:10;148.88;;;142.30;;
3591;SDS011;1810;48.720;9.094;2023-02-28T07:37:41;133.48;;;127.60;;
3591;SDS011;1810;48.720;9.094;2023-02-28T07:40:10;92.60;;;88.15;;
3591;SDS011;1810;48.720;9.094;2023-02-28T07:42:40;86.25;;;82.10;;
3591;SDS011;1810;48.720;9.094;2023-02-28T07:45:10;124.82;;;118.05;;
3591;SDS011;1810;48.720;9.094;2023-02-28T07:47:39;178.98;;;170.25;;
3591;SDS011;1810;48.720;9.094;2023-02-28T07:50:08;119.32;;;113.65;;
3591;SDS011;1810;48.720;9.094;2023-02-28T07:52:40;105.68;;;100.93;;
3591;SDS011;1810;48.720;9.094;2023-02-28T07:55:09;119.05;;;113.28;;
3591;SDS011;1810;48.720;9.094;2023-02-28T07:57:38;238.02;;;224.82;;
3591;SDS011;1810;48.720;9.094;2023-02-28T08:00:07;143.20;;;136.70;;
3591;SDS011;1810;48.720;9.094;2023-02-28T08:02:39;141.55;;;135.38;;
3591;SDS011;1810;48.720;9.094;2023-02-28T08:05:08;92.88;;;88.57;;
3591;SDS011;1810;48.720;9.094;2023-02-28T08:07:36;366.23;;;346.73;;
3591;SDS011;1810;48.720;9.094;2023-02-28T08:10:07;130.45;;;124.13;;
3591;SDS011;1810;48.720;9.094;2023-02-28T08:12:37;114.80;;;109.30;;
3591;SDS011;1810;48.720;9.094;2023-02-28T08:15:08;181.50;;;172.23;;
3591;SDS011;1810;48.720;9.094;2023-02-28T08:17:37;75.18;;;71.60;;
3591;SDS011;1810;48.720;9.094;2023-02-28T08:20:06;148.65;;;141.77;;
3591;SDS011;1810;48.720;9.094;2023-02-28T08:22:36;105.60;;;101.03;;
3591;SDS011;1810;48.720;9.094;2023-02-28T08:25:07;75.93;;;72.22;;
3591;SDS011;1810;48.720;9.094;2023-02-28T08:27:36;94.28;;;89.95;;
3591;SDS011;1810;48.720;9.094;2023-02-28T08:30:05;127.97;;;121.15;;
3591;SDS011;1810;48.720;9.094;2023-02-28T08:32:36;201.05;;;191.50;;
3591;SDS011;1810;48.720;9.094;2023-02-28T08:35:05;199.38;;;189.73;;
3591;SDS011;1810;48.720;9.094;2023-02-28T08:37:35;201.60;;;191.48;;
3591;SDS011;1810;48.720;9.094;2023-02-28T08:40:04;112.97;;;107.63;;
3591;SDS011;1810;48.720;9.094;2023-02-28T08:42:35;168.73;;;160.38;;
3591;SDS011;1810;48.720;9.094;2023-02-28T08:45:05;83.70;;;79.70;;
3591;SDS011;1810;48.720;9.094;2023-02-28T08:47:34;83.65;;;79.55;;
3591;SDS011;1810;48.720;9.094;2023-02-28T08:50:02;80.35;;;76.65;;
3591;SDS011;1810;48.720;9.094;2023-02-28T08:52:32;164.98;;;157.02;;
3591;SDS011;1810;48.720;9.094;2023-02-28T08:55:00;65.57;;;62.17;;
3591;SDS011;1810;48.720;9.094;2023-02-28T08:57:30;117.78;;;112.50;;
3591;SDS011;1810;48.720;9.094;2023-02-28T08:59:59;240.50;;;228.70;;
3591;SDS011;1810;48.720;9.094;2023-02-28T09:02:30;80.05;;;76.28;;
3591;SDS011;1810;48.720;9.094;2023-02-28T09:04:59;129.20;;;122.65;;
3591;SDS011;1810;48.720;9.094;2023-02-28T09:07:27;248.98;;;235.82;;
3591;SDS011;1810;48.720;9.094;2023-02-28T09:09:56;104.57;;;99.47;;
3591;SDS011;1810;48.720;9.094;2023-02-28T09:12:25;74.97;;;71.35;;
3591;SDS011;1810;48.720;9.094;2023-02-28T09:14:55;127.35;;;121.75;;
3591;SDS011;1810;48.720;9.094;2023-02-28T09:17:24;243.52;;;231.18;;
3591;SDS011;1810;48.720;9.094;2023-02-28T09:19:56;233.73;;;222.40;;
3591;SDS011;1810;48.720;9.094;2023-02-28T09:22:25;122.57;;;116.50;;
3591;SDS011;1810;48.720;9.094;2023-02-28T09:24:53;300.48;;;284.65;;
3591;SDS011;1810;48.720;9.094;2023-02-28T09:27:22;291.08;;;274.92;;
3591;SDS011;1810;48.720;9.094;2023-02-28T09:29:51;79.45;;;75.63;;
3591;SDS011;1810;48.720;9.094;2023-02-28T09:32:21;142.23;;;135.63;;
3591;SDS011;1810;48.720;9.094;2023-02-28T09:34:50;98.60;;;93.78;;
3591;SDS011;1810;48.720;9.094;2023-02-28T09:37:18;100.47;;;95.63;;
3591;SDS011;1810;48.720;9.094;2023-02-28T09:39:47;181.00;;;172.02;;
3591;SDS011;1810;48.720;9.094;2023-02-28T09:42:18;234.30;;;222.65;;
3591;SDS011;1810;48.720;9.094;2023-02-28T09:44:49;179.70;;;170.93;;
3591;SDS011;1810;48.720;9.094;2023-02-28T09:47:21;267.52;;;254.07;;
3591;SDS011;1810;48.720;9.094;2023-02-28T09:49:56;263.65;;;250.30;;
3591;SDS011;1810;48.720;9.094;2023-02-28T09:52:31;335.85;;;318.83;;
3591;SDS011;1810;48.720;9.094;2023-02-28T09:55:04;193.85;;;182.85;;
3591;SDS011;1810;48.720;9.094;2023-02-28T09:57:46;199.80;;;189.23;;
3591;SDS011;1810;48.720;9.094;2023-02-28T10:00:16;158.20;;;150.32;;
3591;SDS011;1810;48.720;9.094;2023-02-28T10:05:48;109.05;;;103.72;;
3591;SDS011;1810;48.720;9.094;2023-02-28T10:08:21;261.13;;;247.77;;
3591;SDS011;1810;48.720;9.094;2023-02-28T10:10:54;126.30;;;119.80;;
3591;SDS011;1810;48.720;9.094;2023-02-28T10:13:26;121.32;;;115.20;;
3591;SDS011;1810;48.720;9.094;2023-02-28T10:16:03;175.15;;;166.50;;
3591;SDS011;1810;48.720;9.094;2023-02-28T10:18:39;439.67;;;413.23;;
3591;SDS011;1810;48.720;9.094;2023-02-28T10:21:15;207.45;;;196.80;;
3591;SDS011;1810;48.720;9.094;2023-02-28T10:23:47;460.85;;;429.00;;
3591;SDS011;1810;48.720;9.094;2023-02-28T10:26:17;334.17;;;314.73;;
3591;SDS011;1810;48.720;9.094;2023-02-28T10:28:46;255.65;;;242.30;;
3591;SDS011;1810;48.720;9.094;2023-02-28T10:31:15;243.85;;;231.23;;
3591;SDS011;1810;48.720;9.094;2023-02-28T10:33:47;153.50;;;145.82;;
3591;SDS011;1810;48.720;9.094;2023-02-28T10:36:18;333.77;;;315.45;;
3591;SDS011;1810;48.720;9.094;2023-02-28T10:38:48;489.75;;;450.52;;
3591;SDS011;1810;48.720;9.094;2023-02-28T10:41:26;302.00;;;286.58;;
3591;SDS011;1810;48.720;9.094;2023-02-28T10:44:12;501.55;;;457.73;;
3591;SDS011;1810;48.720;9.094;2023-02-28T10:46:42;381.55;;;362.27;;
3591;SDS011;1810;48.720;9.094;2023-02-28T10:49:17;410.70;;;383.70;;
3591;SDS011;1810;48.720;9.094;2023-02-28T10:51:47;402.55;;;381.88;;
3591;SDS011;1810;48.720;9.094;2023-02-28T10:54:19;396.98;;;374.67;;
3591;SDS011;1810;48.720;9.094;2023-02-28T10:57:06;370.33;;;350.92;;
3591;SDS011;1810;48.720;9.094;2023-02-28T10:59:36;315.15;;;298.73;;
3591;SDS011;1810;48.720;9.094;2023-02-28T11:02:14;224.23;;;212.93;;
3591;SDS011;1810;48.720;9.094;2023-02-28T11:04:59;408.05;;;383.02;;
3591;SDS011;1810;48.720;9.094;2023-02-28T11:07:28;274.23;;;260.33;;
3591;SDS011;1810;48.720;9.094;2023-02-28T11:10:16;290.45;;;275.30;;
3591;SDS011;1810;48.720;9.094;2023-02-28T11:12:46;235.98;;;223.57;;
3591;SDS011;1810;48.720;9.094;2023-02-28T11:15:21;273.27;;;259.38;;
3591;SDS011;1810;48.720;9.094;2023-02-28T11:17:54;326.00;;;309.23;;
3591;SDS011;1810;48.720;9.094;2023-02-28T11:20:28;498.35;;;469.73;;
3591;SDS011;1810;48.720;9.094;2023-02-28T11:22:58;363.08;;;344.60;;
3591;SDS011;1810;48.720;9.094;2023-02-28T11:25:29;327.52;;;311.40;;
3591;SDS011;1810;48.720;9.094;2023-02-28T11:28:00;327.92;;;310.90;;
3591;SDS011;1810;48.720;9.094;2023-02-28T11:30:34;303.55;;;288.27;;
3591;SDS011;1810;48.720;9.094;2023-02-28T11:33:23;297.35;;;281.98;;
3591;SDS011;1810;48.720;9.094;2023-02-28T11:36:00;336.40;;;317.42;;
3591;SDS011;1810;48.720;9.094;2023-02-28T11:38:30;348.88;;;330.42;;
3591;SDS011;1810;48.720;9.094;2023-02-28T11:41:05;256.92;;;244.68;;
3591;SDS011;1810;48.720;9.094;2023-02-28T11:43:52;306.42;;;290.20;;
3591;SDS011;1810;48.720;9.094;2023-02-28T11:46:33;241.35;;;229.45;;
3591;SDS011;1810;48.720;9.094;2023-02-28T11:49:10;212.15;;;201.40;;
3591;SDS011;1810;48.720;9.094;2023-02-28T11:51:49;245.82;;;233.38;;
3591;SDS011;1810;48.720;9.094;2023-02-28T11:54:25;306.17;;;290.83;;
3591;SDS011;1810;48.720;9.094;2023-02-28T11:57:00;306.38;;;290.65;;
3591;SDS011;1810;48.720;9.094;2023-02-28T11:59:36;474.27;;;441.70;;
3591;SDS011;1810;48.720;9.094;2023-02-28T12:02:26;362.77;;;343.88;;
3591;SDS011;1810;48.720;9.094;2023-02-28T12:05:01;340.85;;;323.75;;
3591;SDS011;1810;48.720;9.094;2023-02-28T12:07:49;336.67;;;318.83;;
3591;SDS011;1810;48.720;9.094;2023-02-28T12:10:27;388.02;;;366.77;;
3591;SDS011;1810;48.720;9.094;2023-02-28T12:13:07;270.65;;;256.92;;
3591;SDS011;1810;48.720;9.094;2023-02-28T12:18:41;288.88;;;271.35;;
3591;SDS011;1810;48.720;9.094;2023-02-28T12:21:32;323.63;;;307.15;;
3591;SDS011;1810;48.720;9.094;2023-02-28T12:24:17;482.35;;;454.92;;
3591;SDS011;1810;48.720;9.094;2023-02-28T12:26:55;340.48;;;323.08;;
3591;SDS011;1810;48.720;9.094;2023-02-28T12:29:53;248.65;;;237.18;;
3591;SDS011;1810;48.720;9.094;2023-02-28T12:32:29;351.13;;;332.95;;
3591;SDS011;1810;48.720;9.094;2023-02-28T12:35:01;233.10;;;221.85;;
3591;SDS011;1810;48.720;9.094;2023-02-28T12:37:35;258.77;;;245.18;;
3591;SDS011;1810;48.720;9.094;2023-02-28T12:40:10;338.35;;;321.30;;
3591;SDS011;1810;48.720;9.094;2023-02-28T12:42:42;359.58;;;340.70;;
3591;SDS011;1810;48.720;9.094;2023-02-28T12:45:15;342.25;;;325.27;;
3591;SDS011;1810;48.720;9.094;2023-02-28T12:47:50;438.25;;;414.35;;
3591;SDS011;1810;48.720;9.094;2023-02-28T12:50:25;198.27;;;188.98;;
3591;SDS011;1810;48.720;9.094;2023-02-28T12:52:59;340.38;;;322.67;;
3591;SDS011;1810;48.720;9.094;2023-02-28T12:55:40;420.65;;;396.83;;
3591;SDS011;1810;48.720;9.094;2023-02-28T12:58:15;351.52;;;332.90;;
3591;SDS011;1810;48.720;9.094;2023-02-28T13:01:03;367.85;;;348.23;;
3591;SDS011;1810;48.720;9.094;2023-02-28T13:04:05;292.52;;;277.08;;
3591;SDS011;1810;48.720;9.094;2023-02-28T13:06:57;260.95;;;248.40;;
3591;SDS011;1810;48.720;9.094;2023-02-28T13:09:38;367.30;;;348.10;;
3591;SDS011;1810;48.720;9.094;2023-02-28T13:12:18;445.38;;;418.50;;
3591;SDS011;1810;48.720;9.094;2023-02-28T13:15:01;269.52;;;256.33;;
3591;SDS011;1810;48.720;9.094;2023-02-28T13:17:32;322.85;;;306.88;;
3591;SDS011;1810;48.720;9.094;2023-02-28T13:20:02;418.20;;;391.60;;
3591;SDS011;1810;48.720;9.094;2023-02-28T13:22:44;327.77;;;311.30;;
3591;SDS011;1810;48.720;9.094;2023-02-28T13:34:38;223.43;;;212.77;;
3591;SDS011;1810;48.720;9.094;2023-02-28T13:43:07;568.55;;;528.92;;
3591;SDS011;1810;48.720;9.094;2023-02-28T13:45:39;267.95;;;254.30;;
3591;SDS011;1810;48.720;9.094;2023-02-28T13:48:36;360.60;;;342.38;;
3591;SDS011;1810;48.720;9.094;2023-02-28T13:54:17;303.33;;;287.73;;
3591;SDS011;1810;48.720;9.094;2023-02-28T18:24:07;298.92;;;284.10;;
3591;SDS011;1810;48.720;9.094;2023-02-28T18:26:37;604.85;;;558.03;;
3591;SDS011;1810;48.720;9.094;2023-02-28T18:29:06;350.40;;;332.63;;
3591;SDS011;1810;48.720;9.094;2023-02-28T18:31:36;321.38;;;305.65;;
3591;SDS011;1810;48.720;9.094;2023-02-28T18:34:05;279.52;;;266.50;;
3591;SDS011;1810;48.720;9.094;2023-02-28T18:36:35;546.47;;;513.65;;
3591;SDS011;1810;48.720;9.094;2023-02-28T18:39:04;441.50;;;417.00;;
3591;SDS011;1810;48.720;9.094;2023-02-28T18:41:33;374.20;;;354.67;;
3591;SDS011;1810;48.720;9.094;2023-02-28T18:44:05;362.40;;;344.38;;
3591;SDS011;1810;48.720;9.094;2023-02-28T18:46:44;243.15;;;231.77;;
3591;SDS011;1810;48.720;9.094;2023-02-28T18:49:13;338.95;;;320.83;;
3591;SDS011;1810;48.720;9.094;2023-02-28T18:51:41;276.65;;;263.40;;
3591;SDS011;1810;48.720;9.094;2023-02-28T18:54:13;310.08;;;294.88;;
3591;SDS011;1810;48.720;9.094;2023-02-28T18:56:42;487.40;;;456.83;;
3591;SDS011;1810;48.720;9.094;2023-02-28T18:59:11;234.30;;;223.13;;
3591;SDS011;1810;48.720;9.094;2023-02-28T19:01:39;305.45;;;290.45;;
3591;SDS011;1810;48.720;9.094;2023-02-28T19:04:09;550.90;;;512.72;;
3591;SDS011;1810;48.720;9.094;2023-02-28T19:06:40;371.75;;;349.70;;
3591;SDS011;1810;48.720;9.094;2023-02-28T19:09:08;347.23;;;329.85;;
3591;SDS011;1810;48.720;9.094;2023-02-28T19:11:38;429.90;;;404.88;;
3591;SDS011;1810;48.720;9.094;2023-02-28T19:14:07;361.88;;;344.23;;
3591;SDS011;1810;48.720;9.094;2023-02-28T19:16:35;268.00;;;254.30;;
3591;SDS011;1810;48.720;9.094;2023-02-28T19:19:04;273.33;;;259.52;;
3591;SDS011;1810;48.720;9.094;2023-02-28T19:21:33;325.27;;;309.48;;
3591;SDS011;1810;48.720;9.094;2023-02-28T19:24:02;294.58;;;280.05;;
3591;SDS011;1810;48.720;9.094;2023-02-28T19:26:31;260.40;;;247.32;;
3591;SDS011;1810;48.720;9.094;2023-02-28T19:29:02;229.20;;;218.27;;
3591;SDS011;1810;48.720;9.094;2023-02-28T19:31:31;296.13;;;281.80;;
3591;SDS011;1810;48.720;9.094;2023-02-28T19:34:00;235.05;;;224.00;;
3591;SDS011;1810;48.720;9.094;2023-02-28T19:36:29;413.58;;;389.60;;
3591;SDS011;1810;48.720;9.094;2023-02-28T19:38:58;346.08;;;329.27;;
3591;SDS011;1810;48.720;9.094;2023-02-28T19:41:27;300.98;;;286.02;;
3591;SDS011;1810;48.720;9.094;2023-02-28T19:43:55;304.92;;;289.83;;
3591;SDS011;1810;48.720;9.094;2023-02-28T19:46:25;279.17;;;265.80;;
3591;SDS011;1810;48.720;9.094;2023-02-28T19:48:55;264.10;;;251.55;;
3591;SDS011;1810;48.720;9.094;2023-02-28T19:51:23;271.70;;;258.33;;
3591;SDS011;1810;48.720;9.094;2023-02-28T19:53:54;312.48;;;297.30;;
3591;SDS011;1810;48.720;9.094;2023-02-28T19:56:22;287.00;;;272.23;;
3591;SDS011;1810;48.720;9.094;2023-02-28T19:58:51;266.13;;;252.95;;
3591;SDS011;1810;48.720;9.094;2023-02-28T20:01:19;275.00;;;261.95;;
3591;SDS011;1810;48.720;9.094;2023-02-28T20:03:50;274.60;;;261.33;;
3591;SDS011;1810;48.720;9.094;2023-02-28T20:06:18;305.73;;;290.75;;
3591;SDS011;1810;48.720;9.094;2023-02-28T20:08:47;360.80;;;343.00;;
3591;SDS011;1810;48.720;9.094;2023-02-28T20:11:16;274.63;;;261.40;;
3591;SDS011;1810;48.720;9.094;2023-02-28T20:13:45;321.77;;;306.00;;
3591;SDS011;1810;48.720;9.094;2023-02-28T20:16:14;285.55;;;271.63;;
3591;SDS011;1810;48.720;9.094;2023-02-28T20:18:42;322.17;;;306.42;;
3591;SDS011;1810;48.720;9.094;2023-02-28T20:21:13;275.67;;;261.83;;
3591;SDS011;1810;48.720;9.094;2023-02-28T20:23:42;243.98;;;232.65;;
3591;SDS011;1810;48.720;9.094;2023-02-28T20:26:11;257.77;;;245.30;;
3591;SDS011;1810;48.720;9.094;2023-02-28T20:28:41;213.70;;;203.55;;
3591;SDS011;1810;48.720;9.094;2023-02-28T20:31:10;383.60;;;363.38;;
3591;SDS011;1810;48.720;9.094;2023-02-28T20:33:40;324.88;;;309.23;;
3591;SDS011;1810;48.720;9.094;2023-02-28T20:36:13;327.70;;;311.58;;
3591;SDS011;1810;48.720;9.094;2023-02-28T20:38:44;282.98;;;269.73;;
3591;SDS011;1810;48.720;9.094;2023-02-28T20:41:13;290.92;;;277.15;;
3591;SDS011;1810;48.720;9.094;2023-02-28T20:43:42;170.40;;;162.50;;
3591;SDS011;1810;48.720;9.094;2023-02-28T20:46:12;330.85;;;315.02;;
3591;SDS011;1810;48.720;9.094;2023-02-28T20:48:40;309.27;;;294.02;;
3591;SDS011;1810;48.720;9.094;2023-02-28T20:51:09;318.67;;;302.42;;
3591;SDS011;1810;48.720;9.094;2023-02-28T20:53:39;258.73;;;246.05;;
3591;SDS011;1810;48.720;9.094;2023-02-28T20:56:09;319.42;;;303.20;;
3591;SDS011;1810;48.720;9.094;2023-02-28T20:58:39;303.10;;;288.38;;
3591;SDS011;1810;48.720;9.094;2023-02-28T21:01:09;282.70;;;269.55;;
3591;SDS011;1810;48.720;9.094;2023-02-28T21:03:41;293.92;;;279.88;;
3591;SDS011;1810;48.720;9.094;2023-02-28T21:06:10;325.75;;;310.35;;
3591;SDS011;1810;48.720;9.094;2023-02-28T21:08:40;161.52;;;154.05;;
3591;SDS011;1810;48.720;9.094;2023-02-28T21:11:09;284.67;;;270.92;;
3591;SDS011;1810;48.720;9.094;2023-02-28T21:13:40;264.55;;;252.20;;
3591;SDS011;1810;48.720;9.094;2023-02-28T21:16:11;267.52;;;254.93;;
3591;SDS011;1810;48.720;9.094;2023-02-28T21:18:41;291.15;;;277.48;;
3591;SDS011;1810;48.720;9.094;2023-02-28T21:21:10;292.67;;;278.38;;
3591;SDS011;1810;48.720;9.094;2023-02-28T21:23:40;263.30;;;251.02;;
3591;SDS011;1810;48.720;9.094;2023-02-28T21:26:11;264.20;;;251.30;;
3591;SDS011;1810;48.720;9.094;2023-02-28T21:28:40;316.50;;;301.10;;
3591;SDS011;1810;48.720;9.094;2023-02-28T21:31:10;285.23;;;271.13;;
3591;SDS011;1810;48.720;9.094;2023-02-28T21:33:40;306.98;;;292.05;;
3591;SDS011;1810;48.720;9.094;2023-02-28T21:36:09;341.88;;;325.77;;
3591;SDS011;1810;48.720;9.094;2023-02-28T21:38:41;347.42;;;330.35;;
3591;SDS011;1810;48.720;9.094;2023-02-28T21:41:10;302.50;;;287.98;;
3591;SDS011;1810;48.720;9.094;2023-02-28T21:43:40;255.98;;;243.90;;
3591;SDS011;1810;48.720;9.094;2023-02-28T21:46:10;269.23;;;256.40;;
3591;SDS011;1810;48.720;9.094;2023-02-28T21:48:40;284.85;;;271.30;;
3591;SDS011;1810;48.720;9.094;2023-02-28T21:51:10;254.55;;;242.55;;
3591;SDS011;1810;48.720;9.094;2023-02-28T21:53:41;254.50;;;242.10;;
3591;SDS011;1810;48.720;9.094;2023-02-28T21:56:10;289.15;;;275.17;;
3591;SDS011;1810;48.720;9.094;2023-02-28T21:58:40;279.55;;;266.33;;
3591;SDS011;1810;48.720;9.094;2023-02-28T22:01:09;300.65;;;285.92;;
3591;SDS011;1810;48.720;9.094;2023-02-28T22:03:40;205.35;;;195.50;;
3591;SDS011;1810;48.720;9.094;2023-02-28T22:06:09;325.13;;;309.73;;